createdAt,value
2024-03-11T00:01:14.255Z,3.30
2024-03-11T00:03:49.937Z,4.60
2024-03-11T00:06:21.690Z,5.40
2024-03-11T00:08:54.772Z,4.70
2024-03-11T00:11:26.761Z,5.20
2024-03-11T00:14:00.513Z,4.10
2024-03-11T00:16:32.429Z,3.80
2024-03-11T00:19:04.678Z,5.00
2024-03-11T00:21:36.783Z,3.60
2024-03-11T00:24:11.017Z,4.80
2024-03-11T00:26:43.390Z,4.40
2024-03-11T00:29:16.839Z,3.80
2024-03-11T00:31:52.918Z,4.30
2024-03-11T00:34:27.666Z,2.80
2024-03-11T00:36:59.826Z,3.90
2024-03-11T00:39:32.053Z,4.70
2024-03-11T00:42:04.210Z,5.00
2024-03-11T00:44:36.325Z,4.20
2024-03-11T00:47:08.402Z,3.70
2024-03-11T00:49:40.305Z,3.30
2024-03-11T00:52:12.035Z,4.20
2024-03-11T00:54:44.157Z,5.50
2024-03-11T00:57:16.757Z,3.80
2024-03-11T00:59:48.786Z,4.90
2024-03-11T01:02:20.821Z,4.10
2024-03-11T01:04:53.780Z,4.80
2024-03-11T01:07:34.873Z,3.40
2024-03-11T01:10:17.106Z,3.80
2024-03-11T01:12:49.599Z,5.10
2024-03-11T01:15:22.203Z,4.00
2024-03-11T01:17:54.419Z,3.80
2024-03-11T01:20:26.692Z,2.70
2024-03-11T01:22:59.072Z,4.30
2024-03-11T01:25:30.982Z,5.10
2024-03-11T01:28:03.023Z,4.40
2024-03-11T01:30:36.487Z,2.60
2024-03-11T01:33:09.350Z,3.50
2024-03-11T01:35:42.554Z,4.10
2024-03-11T01:38:14.759Z,4.50
2024-03-11T01:40:47.755Z,5.00
2024-03-11T01:43:19.721Z,3.90
2024-03-11T01:45:51.904Z,3.60
2024-03-11T01:48:27.921Z,4.90
2024-03-11T01:51:00.416Z,4.10
2024-03-11T01:53:33.800Z,3.60
2024-03-11T01:56:07.279Z,3.70
2024-03-11T01:58:42.554Z,5.10
2024-03-11T02:01:18.139Z,4.10
2024-03-11T02:03:52.282Z,4.20
2024-03-11T02:06:26.246Z,4.40
2024-03-11T02:08:58.982Z,4.60
2024-03-11T02:11:30.999Z,4.60
2024-03-11T02:14:03.585Z,4.60
2024-03-11T02:16:35.790Z,4.70
2024-03-11T02:19:08.678Z,4.30
2024-03-11T02:21:47.432Z,4.70
2024-03-11T02:24:21.394Z,5.30
2024-03-11T02:26:53.346Z,3.60
2024-03-11T02:29:25.552Z,4.50
2024-03-11T02:31:58.261Z,4.20
2024-03-11T02:34:30.495Z,5.10
2024-03-11T02:37:02.789Z,3.90
2024-03-11T02:39:35.019Z,3.90
2024-03-11T02:42:07.429Z,3.50
2024-03-11T02:44:41.455Z,3.30
2024-03-11T02:47:13.686Z,3.40
2024-03-11T02:49:45.756Z,4.50
2024-03-11T02:52:18.730Z,3.40
2024-03-11T02:54:52.753Z,3.10
2024-03-11T02:59:56.069Z,4.10
2024-03-11T03:02:30.197Z,3.80
2024-03-11T03:05:02.770Z,4.80
2024-03-11T03:07:34.857Z,4.90
2024-03-11T03:10:11.580Z,4.60
2024-03-11T03:12:43.634Z,5.60
2024-03-11T03:15:16.349Z,4.10
2024-03-11T03:17:48.674Z,4.30
2024-03-11T03:20:23.861Z,4.60
2024-03-11T03:22:57.031Z,4.00
2024-03-11T03:25:34.531Z,3.80
2024-03-11T03:28:07.185Z,5.90
2024-03-11T03:30:41.382Z,5.50
2024-03-11T03:33:13.636Z,4.20
2024-03-11T03:35:46.522Z,4.50
2024-03-11T03:38:18.743Z,4.80
2024-03-11T03:40:51.204Z,4.20
2024-03-11T03:43:23.317Z,4.70
2024-03-11T03:45:56.533Z,4.30
2024-03-11T03:48:28.716Z,3.90
2024-03-11T03:51:05.017Z,4.70
2024-03-11T03:53:37.639Z,6.40
2024-03-11T03:56:11.705Z,6.60
2024-03-11T04:01:14.710Z,4.90
2024-03-11T04:03:47.044Z,4.20
2024-03-11T04:06:19.147Z,3.30
2024-03-11T04:08:52.544Z,5.30
2024-03-11T04:11:24.606Z,4.60
2024-03-11T04:13:58.440Z,3.70
2024-03-11T04:16:30.942Z,5.20
2024-03-11T04:19:05.915Z,4.60
2024-03-11T04:21:39.150Z,5.00
2024-03-11T04:24:13.000Z,5.80
2024-03-11T04:26:48.795Z,5.50
2024-03-11T04:29:20.864Z,4.80
2024-03-11T04:31:52.734Z,7.00
2024-03-11T04:34:24.802Z,5.60
2024-03-11T04:36:56.544Z,4.30
2024-03-11T04:39:29.277Z,4.10
2024-03-11T04:42:01.222Z,3.80
2024-03-11T04:44:33.457Z,4.60
2024-03-11T04:47:06.009Z,5.50
2024-03-11T04:49:38.575Z,4.70
2024-03-11T04:52:10.513Z,5.50
2024-03-11T04:54:42.651Z,4.70
2024-03-11T04:57:14.901Z,4.20
2024-03-11T04:59:47.793Z,4.60
2024-03-11T05:02:19.911Z,5.20
2024-03-11T05:04:52.059Z,4.40
2024-03-11T05:07:24.165Z,3.10
2024-03-11T05:09:57.417Z,4.70
2024-03-11T05:12:29.624Z,4.60
2024-03-11T05:15:01.955Z,4.60
2024-03-11T05:17:33.858Z,5.70
2024-03-11T05:20:07.682Z,6.20
2024-03-11T05:22:42.638Z,4.40
2024-03-11T05:25:16.716Z,4.10
2024-03-11T05:30:21.461Z,5.10
2024-03-11T05:32:53.528Z,4.00
2024-03-11T05:35:26.144Z,6.60
2024-03-11T05:38:01.590Z,6.20
2024-03-11T05:40:33.648Z,5.80
2024-03-11T05:43:06.019Z,6.00
2024-03-11T05:45:37.844Z,5.50
2024-03-11T05:48:10.673Z,4.90
2024-03-11T05:50:42.657Z,3.60
2024-03-11T05:53:15.128Z,5.90
2024-03-11T05:55:49.036Z,4.10
2024-03-11T05:58:20.905Z,5.50
2024-03-11T06:00:54.087Z,5.50
2024-03-11T06:03:26.019Z,5.10
2024-03-11T06:05:58.232Z,6.00
2024-03-11T06:08:31.109Z,4.70
2024-03-11T06:11:03.198Z,3.70
2024-03-11T06:13:35.163Z,5.80
2024-03-11T06:16:09.036Z,3.90
2024-03-11T06:18:40.926Z,4.90
2024-03-11T06:21:13.086Z,5.80
2024-03-11T06:23:45.084Z,7.30
2024-03-11T06:26:18.081Z,5.10
2024-03-11T06:28:51.001Z,4.90
2024-03-11T06:31:23.989Z,5.00
2024-03-11T06:33:57.163Z,6.10
2024-03-11T06:36:30.616Z,4.40
2024-03-11T06:39:03.445Z,5.20
2024-03-11T06:41:37.340Z,4.90
2024-03-11T06:44:13.012Z,5.40
2024-03-11T06:46:49.303Z,4.60
2024-03-11T06:49:21.814Z,5.10
2024-03-11T06:51:54.613Z,5.20
2024-03-11T06:54:26.778Z,3.80
2024-03-11T06:56:58.699Z,4.90
2024-03-11T06:59:31.132Z,5.10
2024-03-11T07:02:03.314Z,6.50
2024-03-11T07:04:35.276Z,5.30
2024-03-11T07:07:08.067Z,6.70
2024-03-11T07:09:41.409Z,6.30
2024-03-11T07:12:13.517Z,4.40
2024-03-11T07:14:45.481Z,6.00
2024-03-11T07:17:17.546Z,4.30
2024-03-11T07:19:51.455Z,5.10
2024-03-11T07:22:23.441Z,5.20
2024-03-11T07:24:55.393Z,6.50
2024-03-11T07:27:27.688Z,4.20
2024-03-11T07:29:59.670Z,6.10
2024-03-11T07:32:31.570Z,5.10
2024-03-11T07:35:03.928Z,6.10
2024-03-11T07:37:38.305Z,4.20
2024-03-11T07:40:13.252Z,5.20
2024-03-11T07:42:45.229Z,5.10
2024-03-11T07:45:17.077Z,7.30
2024-03-11T07:47:49.154Z,6.00
2024-03-11T07:50:20.896Z,5.40
2024-03-11T07:52:53.493Z,7.00
2024-03-11T07:55:30.169Z,5.40
2024-03-11T07:58:02.962Z,5.10
2024-03-11T08:00:38.228Z,5.20
2024-03-11T08:03:10.576Z,5.00
2024-03-11T08:05:42.482Z,7.40
2024-03-11T08:08:14.880Z,6.10
2024-03-11T08:10:52.176Z,5.10
2024-03-11T08:13:24.538Z,4.50
2024-03-11T08:15:57.054Z,6.20
2024-03-11T08:18:31.043Z,5.90
2024-03-11T08:21:05.107Z,5.90
2024-03-11T08:23:39.095Z,6.50
2024-03-11T08:26:10.859Z,5.90
2024-03-11T08:28:43.403Z,5.10
2024-03-11T08:31:15.182Z,7.20
2024-03-11T08:33:47.151Z,6.00
2024-03-11T08:36:19.285Z,5.20
2024-03-11T08:38:52.039Z,5.60
2024-03-11T08:41:25.169Z,4.50
2024-03-11T08:43:57.242Z,6.00
2024-03-11T08:46:29.061Z,6.80
2024-03-11T08:49:01.432Z,4.70
2024-03-11T08:51:33.712Z,5.30
2024-03-11T08:54:05.905Z,7.10
2024-03-11T08:56:38.469Z,6.70
2024-03-11T08:59:13.862Z,6.90
2024-03-11T09:01:46.096Z,5.80
2024-03-11T09:04:18.312Z,5.60
2024-03-11T09:06:50.348Z,5.70
2024-03-11T09:09:26.370Z,4.90
2024-03-11T09:11:59.105Z,5.30
2024-03-11T09:14:32.947Z,5.90
2024-03-11T09:19:35.981Z,4.60
2024-03-11T09:22:08.012Z,4.80
2024-03-11T09:24:42.741Z,6.10
2024-03-11T09:27:15.837Z,5.70
2024-03-11T09:29:51.141Z,7.00
2024-03-11T09:32:23.632Z,6.90
2024-03-11T09:34:55.625Z,5.30
2024-03-11T09:37:27.814Z,4.40
2024-03-11T09:39:59.961Z,6.00
2024-03-11T09:42:32.401Z,4.40
2024-03-11T09:45:07.874Z,6.60
2024-03-11T09:47:43.307Z,6.50
2024-03-11T09:50:15.752Z,6.10
2024-03-11T09:52:49.280Z,6.10
2024-03-11T09:55:21.409Z,7.90
2024-03-11T09:57:54.850Z,5.10
2024-03-11T10:00:28.886Z,5.40
2024-03-11T10:05:35.722Z,5.80
2024-03-11T10:10:40.469Z,6.40
2024-03-11T10:13:12.372Z,6.20
2024-03-11T10:15:44.244Z,6.70
2024-03-11T10:18:27.930Z,6.10
2024-03-11T10:21:00.819Z,6.70
2024-03-11T10:23:32.888Z,7.00
2024-03-11T10:26:19.113Z,7.40
2024-03-11T10:28:51.608Z,4.90
2024-03-11T10:31:25.544Z,6.90
2024-03-11T10:34:04.345Z,7.30
2024-03-11T10:36:37.313Z,7.40
2024-03-11T10:39:11.662Z,7.60
2024-03-11T10:41:43.831Z,5.00
2024-03-11T10:44:25.542Z,5.10
2024-03-11T10:47:03.514Z,7.80
2024-03-11T10:49:41.529Z,8.20
2024-03-11T10:52:18.341Z,4.90
2024-03-11T10:55:06.929Z,6.00
2024-03-11T10:57:46.271Z,7.60
2024-03-11T11:00:23.392Z,6.80
2024-03-11T11:02:59.491Z,5.00
2024-03-11T11:05:35.824Z,4.80
2024-03-11T11:08:10.234Z,5.30
2024-03-11T11:10:42.584Z,5.70
2024-03-11T11:13:14.658Z,8.30
2024-03-11T11:15:47.489Z,9.20
2024-03-11T11:18:20.014Z,6.30
2024-03-11T11:20:53.934Z,7.10
2024-03-11T11:23:30.092Z,8.50
2024-03-11T11:26:05.979Z,7.10
2024-03-11T11:28:40.698Z,6.90
2024-03-11T11:31:14.743Z,5.80
2024-03-11T11:33:56.537Z,8.00
2024-03-11T11:37:04.345Z,7.50
2024-03-11T11:39:44.390Z,7.40
2024-03-11T11:42:40.698Z,6.90
2024-03-11T11:45:13.604Z,6.50
2024-03-11T11:47:45.609Z,6.20
2024-03-11T11:50:35.690Z,8.70
2024-03-11T11:53:07.808Z,8.30
2024-03-11T11:55:51.870Z,7.60
2024-03-11T11:58:23.707Z,7.10
2024-03-11T12:01:04.330Z,7.80
2024-03-11T12:03:37.660Z,7.60
2024-03-11T12:06:20.406Z,7.50
2024-03-11T12:08:55.484Z,6.70
2024-03-11T12:11:28.583Z,5.30
2024-03-11T12:14:00.573Z,6.50
2024-03-11T12:16:32.533Z,7.30
2024-03-11T12:19:10.525Z,7.10
2024-03-11T12:21:46.250Z,5.40
2024-03-11T12:24:19.282Z,5.00
2024-03-11T12:26:51.890Z,6.90
2024-03-11T12:29:24.969Z,5.70
2024-03-11T12:31:58.266Z,7.90
2024-03-11T12:34:34.182Z,6.50
2024-03-11T12:37:07.790Z,6.60
2024-03-11T12:39:48.656Z,6.60
2024-03-11T12:42:29.717Z,7.00
2024-03-11T12:45:04.796Z,5.50
2024-03-11T12:47:37.785Z,5.90
2024-03-11T12:50:13.281Z,7.40
2024-03-11T12:52:45.273Z,5.60
2024-03-11T12:55:17.853Z,6.40
2024-03-11T12:57:49.958Z,8.30
2024-03-11T13:00:27.398Z,5.50
2024-03-11T13:03:13.221Z,5.50
2024-03-11T13:06:01.284Z,7.00
2024-03-11T13:08:35.099Z,5.20
2024-03-11T13:11:10.647Z,5.90
2024-03-11T13:13:44.148Z,5.70
2024-03-11T13:16:18.440Z,5.10
2024-03-11T13:18:54.810Z,6.50
2024-03-11T13:21:31.121Z,8.70
2024-03-11T13:24:05.935Z,5.60
2024-03-11T13:26:42.229Z,6.80
2024-03-11T13:29:15.457Z,8.00
2024-03-11T13:31:47.484Z,7.50
2024-03-11T13:34:19.519Z,5.20
2024-03-11T13:36:52.576Z,6.90
2024-03-11T13:39:35.983Z,5.30
2024-03-11T13:42:13.586Z,6.40
2024-03-11T13:44:45.709Z,6.60
2024-03-11T13:47:17.896Z,6.60
2024-03-11T13:49:51.337Z,5.70
2024-03-11T13:52:23.409Z,5.20
2024-03-11T13:54:55.724Z,6.50
2024-03-11T13:57:27.778Z,6.60
2024-03-11T13:59:59.938Z,6.30
2024-03-11T14:02:33.041Z,6.10
2024-03-11T14:05:05.940Z,5.90
2024-03-11T14:07:38.267Z,6.00
2024-03-11T14:10:11.452Z,6.00
2024-03-11T14:12:44.009Z,8.30
2024-03-11T14:15:17.106Z,7.90
2024-03-11T14:17:50.491Z,7.30
2024-03-11T14:20:25.626Z,7.30
2024-03-11T14:22:57.379Z,6.40
2024-03-11T14:25:32.768Z,5.30
2024-03-11T14:28:05.061Z,8.20
2024-03-11T14:30:39.932Z,6.60
2024-03-11T14:33:12.029Z,7.20
2024-03-11T14:35:45.933Z,6.60
2024-03-11T14:38:17.716Z,7.80
2024-03-11T14:40:52.060Z,6.80
2024-03-11T14:43:26.132Z,7.10
2024-03-11T14:46:00.263Z,6.80
2024-03-11T14:48:38.291Z,6.80
2024-03-11T14:51:11.920Z,7.30
2024-03-11T14:53:43.708Z,5.90
2024-03-11T14:56:15.819Z,6.30
2024-03-11T14:58:50.601Z,6.70
2024-03-11T15:01:23.647Z,6.50
2024-03-11T15:03:55.650Z,7.00
2024-03-11T15:06:28.981Z,7.40
2024-03-11T15:09:00.867Z,7.20
2024-03-11T15:11:35.253Z,5.60
2024-03-11T15:14:08.202Z,6.40
2024-03-11T15:16:40.965Z,7.10
2024-03-11T15:19:13.232Z,4.50
2024-03-11T15:21:45.702Z,9.50
2024-03-11T15:24:19.458Z,7.00
2024-03-11T15:26:53.978Z,8.10
2024-03-11T15:31:58.321Z,7.90
2024-03-11T15:34:30.123Z,5.50
2024-03-11T15:37:02.194Z,6.90
2024-03-11T15:39:40.297Z,6.40
2024-03-11T15:42:12.406Z,7.10
2024-03-11T15:44:44.774Z,7.20
2024-03-11T15:47:17.414Z,6.20
2024-03-11T15:49:49.206Z,8.80
2024-03-11T15:52:22.123Z,7.70
2024-03-11T15:54:54.397Z,7.50
2024-03-11T15:57:27.290Z,6.10
2024-03-11T15:59:59.242Z,9.70
2024-03-11T16:02:31.764Z,7.00
2024-03-11T16:05:04.526Z,8.10
2024-03-11T16:07:36.893Z,9.00
2024-03-11T16:10:15.218Z,7.50
2024-03-11T16:12:51.461Z,7.50
2024-03-11T16:15:24.480Z,8.80
2024-03-11T16:17:58.317Z,8.40
2024-03-11T16:23:02.533Z,7.70
2024-03-11T16:25:34.538Z,8.10
2024-03-11T16:28:11.300Z,7.80
2024-03-11T16:30:43.361Z,8.30
2024-03-11T16:33:16.659Z,7.50
2024-03-11T16:35:49.195Z,11.20
2024-03-11T16:38:24.393Z,7.90
2024-03-11T16:40:56.647Z,8.70
2024-03-11T16:43:28.741Z,11.60
2024-03-11T16:46:02.989Z,7.50
2024-03-11T16:48:35.130Z,6.80
2024-03-11T16:51:07.117Z,5.00
2024-03-11T16:53:39.834Z,10.80
2024-03-11T16:56:14.130Z,10.20
2024-03-11T16:58:47.856Z,8.10
2024-03-11T17:01:20.515Z,11.30
2024-03-11T17:03:52.814Z,8.60
2024-03-11T17:06:27.053Z,9.50
2024-03-11T17:09:00.802Z,12.10
2024-03-11T17:11:32.652Z,9.80
2024-03-11T17:14:08.656Z,6.20
2024-03-11T17:16:40.489Z,8.70
2024-03-11T17:19:15.104Z,8.00
2024-03-11T17:21:49.526Z,8.60
2024-03-11T17:24:21.487Z,12.20
2024-03-11T17:26:54.208Z,11.10
2024-03-11T17:29:26.268Z,10.70
2024-03-11T17:32:02.218Z,10.40
2024-03-11T17:34:34.961Z,12.00
2024-03-11T17:37:07.525Z,12.00
2024-03-11T17:39:40.006Z,13.80
2024-03-11T17:42:16.274Z,6.40
2024-03-11T17:44:49.654Z,11.30
2024-03-11T17:47:21.740Z,9.90
2024-03-11T17:49:53.790Z,12.70
2024-03-11T17:52:25.806Z,9.70
2024-03-11T17:54:58.763Z,8.50
2024-03-11T17:57:30.644Z,11.10
2024-03-11T18:00:11.809Z,11.10
2024-03-11T18:02:45.554Z,11.90
2024-03-11T18:05:21.393Z,8.40
2024-03-11T18:07:54.584Z,10.00
2024-03-11T18:10:27.389Z,7.70
2024-03-11T18:13:01.802Z,11.50
2024-03-11T18:15:36.330Z,8.90
2024-03-11T18:18:11.864Z,11.40
2024-03-11T18:20:44.234Z,11.00
2024-03-11T18:23:17.957Z,11.70
2024-03-11T18:25:52.401Z,9.50
2024-03-11T18:28:25.477Z,10.30
2024-03-11T18:30:57.719Z,9.70
2024-03-11T18:33:31.192Z,11.90
2024-03-11T18:36:04.395Z,11.50
2024-03-11T18:38:37.825Z,10.00
2024-03-11T18:41:09.993Z,11.90
2024-03-11T18:43:43.206Z,10.50
2024-03-11T18:46:18.407Z,11.10
2024-03-11T18:48:50.318Z,12.20
2024-03-11T18:51:23.753Z,8.30
2024-03-11T18:53:55.518Z,6.50
2024-03-11T18:56:27.366Z,11.60
2024-03-11T18:58:59.267Z,14.70
2024-03-11T19:01:31.088Z,8.60
2024-03-11T19:04:04.716Z,13.50
2024-03-11T19:06:37.089Z,10.70
2024-03-11T19:09:09.591Z,9.10
2024-03-11T19:11:42.095Z,11.40
2024-03-11T19:14:15.599Z,12.00
2024-03-11T19:16:47.477Z,9.80
2024-03-11T19:19:19.598Z,11.20
2024-03-11T19:21:53.007Z,13.40
2024-03-11T19:24:25.245Z,11.70
2024-03-11T19:27:03.397Z,10.20
2024-03-11T19:29:38.284Z,10.20
2024-03-11T19:32:11.452Z,7.80
2024-03-11T19:34:46.085Z,10.40
2024-03-11T19:37:43.760Z,8.70
2024-03-11T19:40:25.457Z,10.30
2024-03-11T19:43:07.308Z,7.50
2024-03-11T19:46:17.542Z,10.40
2024-03-11T19:49:16.128Z,11.50
2024-03-11T19:52:27.931Z,9.10
2024-03-11T19:56:00.276Z,13.00
2024-03-11T19:59:06.547Z,9.10
2024-03-11T20:02:09.915Z,8.80
2024-03-11T20:05:22.396Z,8.50
2024-03-11T20:08:23.221Z,9.00
2024-03-11T20:11:26.603Z,8.30
2024-03-11T20:14:24.343Z,8.70
2024-03-11T20:17:44.214Z,9.20
2024-03-11T20:20:56.101Z,8.10
2024-03-11T20:27:07.001Z,11.90
2024-03-11T20:29:45.019Z,8.70
2024-03-11T20:32:23.838Z,12.70
2024-03-11T20:34:56.183Z,9.20
2024-03-11T20:37:29.203Z,14.20
2024-03-11T20:40:01.186Z,11.10
2024-03-11T20:42:36.040Z,10.60
2024-03-11T20:45:09.657Z,10.90
2024-03-11T20:47:41.868Z,11.10
2024-03-11T20:50:14.131Z,9.20
2024-03-11T20:52:46.675Z,11.10
2024-03-11T20:55:18.716Z,10.60
2024-03-11T20:57:50.519Z,10.20
2024-03-11T21:00:22.972Z,11.30
2024-03-11T21:02:55.019Z,13.50
2024-03-11T21:05:28.927Z,9.60
2024-03-11T21:08:02.117Z,10.70
2024-03-11T21:10:34.111Z,12.60
2024-03-11T21:13:07.020Z,11.30
2024-03-11T21:15:41.268Z,10.00
2024-03-11T21:18:14.273Z,11.80
2024-03-11T21:21:07.599Z,9.70
2024-03-11T21:23:42.045Z,10.70
2024-03-11T21:26:39.534Z,13.60
2024-03-11T21:29:11.602Z,11.40
2024-03-11T21:31:43.353Z,10.20
2024-03-11T21:34:16.269Z,9.10
2024-03-11T21:36:48.167Z,10.20
2024-03-11T21:39:20.918Z,9.40
2024-03-11T21:41:53.410Z,9.00
2024-03-11T21:44:26.943Z,9.50
2024-03-11T21:46:59.513Z,9.40
2024-03-11T21:49:31.249Z,10.00
2024-03-11T21:52:03.249Z,9.50
2024-03-11T21:54:36.399Z,12.60
2024-03-11T21:57:08.434Z,8.60
2024-03-11T21:59:46.691Z,8.70
2024-03-11T22:02:20.948Z,8.60
2024-03-11T22:04:57.453Z,9.70
2024-03-11T22:07:30.004Z,7.70
2024-03-11T22:10:03.381Z,10.10
2024-03-11T22:12:35.967Z,11.20
2024-03-11T22:15:09.412Z,8.50
2024-03-11T22:17:41.553Z,6.30
2024-03-11T22:20:14.022Z,6.00
2024-03-11T22:22:48.737Z,8.20
2024-03-11T22:25:21.335Z,9.00
2024-03-11T22:27:53.740Z,8.20
2024-03-11T22:30:26.121Z,7.70
2024-03-11T22:33:00.394Z,8.70
2024-03-11T22:35:32.717Z,8.70
2024-03-11T22:38:05.061Z,9.20
2024-03-11T22:40:37.093Z,10.00
2024-03-11T22:43:09.096Z,9.20
2024-03-11T22:45:42.526Z,7.70
2024-03-11T22:48:14.305Z,8.10
2024-03-11T22:50:46.797Z,8.00
2024-03-11T22:53:23.076Z,8.40
2024-03-11T22:55:55.466Z,6.30
2024-03-11T22:58:28.108Z,6.10
2024-03-11T23:01:07.520Z,8.70
2024-03-11T23:03:39.601Z,8.10
2024-03-11T23:06:16.183Z,8.10
2024-03-11T23:08:48.431Z,9.10
2024-03-11T23:11:22.071Z,8.00
2024-03-11T23:16:28.433Z,8.50
2024-03-11T23:19:04.197Z,8.00
2024-03-11T23:21:38.578Z,7.00
2024-03-11T23:24:11.110Z,7.00
2024-03-11T23:26:43.395Z,6.30
2024-03-11T23:29:15.193Z,6.70
2024-03-11T23:31:47.090Z,9.40
2024-03-11T23:34:18.956Z,7.40
2024-03-11T23:36:51.188Z,7.20
2024-03-11T23:39:23.201Z,9.00
2024-03-11T23:41:56.088Z,7.20
2024-03-11T23:44:29.773Z,9.20
2024-03-11T23:47:01.875Z,9.40
2024-03-11T23:49:33.969Z,5.80
2024-03-11T23:52:07.031Z,7.10
2024-03-11T23:54:41.017Z,9.50
